sensor_id;sensor_type;location;lat;lon;timestamp;pressure;altitude;pressure_sealevel;temperature;humidity
64404;BME280;50726;54.912;-8.392;2023-01-29T00:01:33;102126.38;;;28.07;45.52
64404;BME280;50726;54.912;-8.392;2023-01-29T00:03:59;102128.97;;;28.58;45.82
64404;BME280;50726;54.912;-8.392;2023-01-29T00:06:25;102123.97;;;29.34;44.36
64404;BME280;50726;54.912;-8.392;2023-01-29T00:08:51;102109.78;;;28.74;45.07
64404;BME280;50726;54.912;-8.392;2023-01-29T00:11:17;102108.59;;;27.17;49.12
64404;BME280;50726;54.912;-8.392;2023-01-29T00:13:45;102091.00;;;26.04;50.01
64404;BME280;50726;54.912;-8.392;2023-01-29T00:16:11;102102.56;;;28.99;45.34
64404;BME280;50726;54.912;-8.392;2023-01-29T00:18:38;102107.94;;;28.99;45.86
64404;BME280;50726;54.912;-8.392;2023-01-29T00:21:11;102095.50;;;26.99;47.44
64404;BME280;50726;54.912;-8.392;2023-01-29T00:23:37;102087.94;;;27.17;46.99
64404;BME280;50726;54.912;-8.392;2023-01-29T00:26:03;102080.19;;;28.13;47.21
64404;BME280;50726;54.912;-8.392;2023-01-29T00:28:29;102077.59;;;27.50;47.34
64404;BME280;50726;54.912;-8.392;2023-01-29T00:30:54;102075.88;;;25.32;50.17
64404;BME280;50726;54.912;-8.392;2023-01-29T00:33:20;102066.34;;;28.67;45.78
64404;BME280;50726;54.912;-8.392;2023-01-29T00:35:46;102058.31;;;27.19;47.56
64404;BME280;50726;54.912;-8.392;2023-01-29T00:38:11;102053.19;;;27.91;46.75
64404;BME280;50726;54.912;-8.392;2023-01-29T00:40:38;102048.53;;;28.17;47.65
64404;BME280;50726;54.912;-8.392;2023-01-29T00:43:22;102069.88;;;27.32;48.02
64404;BME280;50726;54.912;-8.392;2023-01-29T00:46:07;102039.69;;;27.79;48.04
64404;BME280;50726;54.912;-8.392;2023-01-29T00:48:34;102032.03;;;28.10;47.78
64404;BME280;50726;54.912;-8.392;2023-01-29T00:51:01;102030.97;;;27.51;48.54
64404;BME280;50726;54.912;-8.392;2023-01-29T00:53:27;102038.56;;;29.69;45.80
64404;BME280;50726;54.912;-8.392;2023-01-29T00:55:53;102033.91;;;28.46;46.92
64404;BME280;50726;54.912;-8.392;2023-01-29T00:58:19;102014.16;;;28.09;46.60
64404;BME280;50726;54.912;-8.392;2023-01-29T01:00:50;102026.94;;;28.54;46.94
64404;BME280;50726;54.912;-8.392;2023-01-29T01:03:16;102018.31;;;29.19;47.00
64404;BME280;50726;54.912;-8.392;2023-01-29T01:05:42;102023.28;;;27.33;48.09
64404;BME280;50726;54.912;-8.392;2023-01-29T01:08:09;102019.84;;;28.76;46.18
64404;BME280;50726;54.912;-8.392;2023-01-29T01:11:02;102007.88;;;28.69;47.09
64404;BME280;50726;54.912;-8.392;2023-01-29T01:13:30;102008.97;;;28.66;46.89
64404;BME280;50726;54.912;-8.392;2023-01-29T01:15:56;102018.09;;;28.41;47.53
64404;BME280;50726;54.912;-8.392;2023-01-29T01:18:22;102006.03;;;27.98;47.10
64404;BME280;50726;54.912;-8.392;2023-01-29T01:20:47;102005.88;;;28.12;47.21
64404;BME280;50726;54.912;-8.392;2023-01-29T01:23:19;101998.75;;;29.73;45.69
64404;BME280;50726;54.912;-8.392;2023-01-29T01:25:44;101987.03;;;30.38;44.58
64404;BME280;50726;54.912;-8.392;2023-01-29T01:28:11;101988.88;;;30.16;44.51
64404;BME280;50726;54.912;-8.392;2023-01-29T01:30:37;101978.47;;;29.34;45.20
64404;BME280;50726;54.912;-8.392;2023-01-29T01:33:02;101991.16;;;27.56;47.49
64404;BME280;50726;54.912;-8.392;2023-01-29T01:35:28;101971.59;;;30.07;45.65
64404;BME280;50726;54.912;-8.392;2023-01-29T01:37:54;101978.31;;;29.70;45.65
64404;BME280;50726;54.912;-8.392;2023-01-29T01:40:22;101982.97;;;27.71;47.44
64404;BME280;50726;54.912;-8.392;2023-01-29T01:42:50;101980.09;;;28.21;47.31
64404;BME280;50726;54.912;-8.392;2023-01-29T01:47:57;101962.59;;;29.76;46.00
64404;BME280;50726;54.912;-8.392;2023-01-29T01:50:26;101963.13;;;27.60;46.07
64404;BME280;50726;54.912;-8.392;2023-01-29T01:53:05;101956.25;;;29.10;46.23
64404;BME280;50726;54.912;-8.392;2023-01-29T01:55:34;101969.16;;;30.16;45.13
64404;BME280;50726;54.912;-8.392;2023-01-29T01:58:07;101946.06;;;28.56;45.96
64404;BME280;50726;54.912;-8.392;2023-01-29T02:00:35;101954.94;;;27.86;46.84
64404;BME280;50726;54.912;-8.392;2023-01-29T02:03:01;101959.88;;;27.55;47.58
64404;BME280;50726;54.912;-8.392;2023-01-29T02:05:46;101965.31;;;28.97;46.05
64404;BME280;50726;54.912;-8.392;2023-01-29T02:11:39;101931.34;;;29.73;44.28
64404;BME280;50726;54.912;-8.392;2023-01-29T02:14:05;101926.63;;;30.08;43.79
64404;BME280;50726;54.912;-8.392;2023-01-29T02:16:33;101920.69;;;29.93;44.30
64404;BME280;50726;54.912;-8.392;2023-01-29T02:18:59;101924.53;;;29.13;45.78
64404;BME280;50726;54.912;-8.392;2023-01-29T02:22:19;101927.84;;;29.82;44.66
64404;BME280;50726;54.912;-8.392;2023-01-29T02:25:05;101940.06;;;30.19;43.79
64404;BME280;50726;54.912;-8.392;2023-01-29T02:27:58;101920.59;;;32.65;41.41
64404;BME280;50726;54.912;-8.392;2023-01-29T02:30:28;101909.84;;;28.37;46.46
64404;BME280;50726;54.912;-8.392;2023-01-29T02:33:07;101901.00;;;31.96;42.68
64404;BME280;50726;54.912;-8.392;2023-01-29T02:35:56;101893.47;;;30.79;43.21
64404;BME280;50726;54.912;-8.392;2023-01-29T02:38:29;101905.22;;;29.41;44.76
64404;BME280;50726;54.912;-8.392;2023-01-29T02:41:27;101881.38;;;29.90;44.71
64404;BME280;50726;54.912;-8.392;2023-01-29T02:44:07;101888.81;;;30.50;44.38
64404;BME280;50726;54.912;-8.392;2023-01-29T02:46:36;101889.81;;;30.90;43.85
64404;BME280;50726;54.912;-8.392;2023-01-29T02:57:16;101873.00;;;32.25;41.48
64404;BME280;50726;54.912;-8.392;2023-01-29T03:00:21;101876.22;;;31.61;42.28
64404;BME280;50726;54.912;-8.392;2023-01-29T03:02:58;101871.84;;;31.50;42.77
64404;BME280;50726;54.912;-8.392;2023-01-29T03:05:31;101835.72;;;29.56;44.63
64404;BME280;50726;54.912;-8.392;2023-01-29T03:08:03;101855.47;;;31.61;43.17
64404;BME280;50726;54.912;-8.392;2023-01-29T03:11:04;101872.72;;;30.70;43.20
64404;BME280;50726;54.912;-8.392;2023-01-29T03:13:39;101864.78;;;30.88;42.64
64404;BME280;50726;54.912;-8.392;2023-01-29T03:16:28;101852.56;;;30.12;44.01
64404;BME280;50726;54.912;-8.392;2023-01-29T03:21:31;101847.38;;;31.42;42.03
64404;BME280;50726;54.912;-8.392;2023-01-29T03:24:38;101829.31;;;31.32;42.86
64404;BME280;50726;54.912;-8.392;2023-01-29T03:27:46;101849.34;;;31.50;41.87
64404;BME280;50726;54.912;-8.392;2023-01-29T03:30:35;101846.53;;;27.50;48.29
64404;BME280;50726;54.912;-8.392;2023-01-29T03:33:23;101813.47;;;30.88;43.02
64404;BME280;50726;54.912;-8.392;2023-01-29T03:35:52;101830.13;;;30.93;42.91
64404;BME280;50726;54.912;-8.392;2023-01-29T03:38:20;101838.56;;;27.73;46.29
64404;BME280;50726;54.912;-8.392;2023-01-29T03:41:11;101814.75;;;31.63;43.03
64404;BME280;50726;54.912;-8.392;2023-01-29T03:43:49;101801.75;;;32.80;42.26
64404;BME280;50726;54.912;-8.392;2023-01-29T03:46:28;101805.06;;;29.99;43.60
64404;BME280;50726;54.912;-8.392;2023-01-29T03:51:43;101819.41;;;32.28;42.89
64404;BME280;50726;54.912;-8.392;2023-01-29T03:54:28;101793.44;;;31.50;41.81
64404;BME280;50726;54.912;-8.392;2023-01-29T03:57:03;101806.69;;;28.83;46.77
64404;BME280;50726;54.912;-8.392;2023-01-29T03:59:38;101811.91;;;30.86;44.79
64404;BME280;50726;54.912;-8.392;2023-01-29T04:02:18;101825.59;;;31.14;44.90
64404;BME280;50726;54.912;-8.392;2023-01-29T04:04:48;101776.22;;;28.82;45.93
64404;BME280;50726;54.912;-8.392;2023-01-29T04:07:18;101795.78;;;29.92;44.57
64404;BME280;50726;54.912;-8.392;2023-01-29T04:10:05;101796.41;;;29.74;46.53
64404;BME280;50726;54.912;-8.392;2023-01-29T04:12:50;101794.63;;;27.97;48.61
64404;BME280;50726;54.912;-8.392;2023-01-29T04:15:19;101784.06;;;29.51;47.60
64404;BME280;50726;54.912;-8.392;2023-01-29T04:17:49;101782.38;;;30.33;45.03
64404;BME280;50726;54.912;-8.392;2023-01-29T04:20:19;101790.25;;;26.75;50.26
64404;BME280;50726;54.912;-8.392;2023-01-29T04:22:47;101760.16;;;29.25;46.56
64404;BME280;50726;54.912;-8.392;2023-01-29T04:25:22;101763.13;;;29.85;46.09
64404;BME280;50726;54.912;-8.392;2023-01-29T04:28:09;101773.25;;;29.29;47.71
64404;BME280;50726;54.912;-8.392;2023-01-29T04:30:52;101763.47;;;28.96;46.95
64404;BME280;50726;54.912;-8.392;2023-01-29T04:33:38;101778.81;;;29.70;47.00
64404;BME280;50726;54.912;-8.392;2023-01-29T04:39:24;101745.44;;;29.07;46.91
64404;BME280;50726;54.912;-8.392;2023-01-29T04:41:56;101763.59;;;28.94;47.11
64404;BME280;50726;54.912;-8.392;2023-01-29T04:47:23;101764.66;;;28.59;49.58
64404;BME280;50726;54.912;-8.392;2023-01-29T04:52:38;101737.13;;;27.52;51.20
64404;BME280;50726;54.912;-8.392;2023-01-29T04:55:48;101761.28;;;30.78;46.95
64404;BME280;50726;54.912;-8.392;2023-01-29T05:00:47;101757.00;;;29.19;48.81
64404;BME280;50726;54.912;-8.392;2023-01-29T05:03:15;101746.34;;;29.18;48.99
64404;BME280;50726;54.912;-8.392;2023-01-29T05:05:44;101765.44;;;29.69;49.66
64404;BME280;50726;54.912;-8.392;2023-01-29T05:08:13;101777.91;;;27.46;51.07
64404;BME280;50726;54.912;-8.392;2023-01-29T05:10:41;101745.50;;;28.52;52.14
64404;BME280;50726;54.912;-8.392;2023-01-29T05:13:11;101723.00;;;27.73;53.77
64404;BME280;50726;54.912;-8.392;2023-01-29T05:16:07;101733.03;;;27.71;52.99
64404;BME280;50726;54.912;-8.392;2023-01-29T05:18:34;101720.31;;;28.19;52.74
64404;BME280;50726;54.912;-8.392;2023-01-29T05:21:06;101721.81;;;28.23;53.12
64404;BME280;50726;54.912;-8.392;2023-01-29T05:23:32;101721.34;;;27.36;53.31
64404;BME280;50726;54.912;-8.392;2023-01-29T05:25:59;101696.81;;;28.88;52.43
64404;BME280;50726;54.912;-8.392;2023-01-29T05:28:25;101702.38;;;28.31;51.41
64404;BME280;50726;54.912;-8.392;2023-01-29T05:30:53;101671.75;;;30.43;48.30
64404;BME280;50726;54.912;-8.392;2023-01-29T05:33:22;101682.41;;;30.54;50.05
64404;BME280;50726;54.912;-8.392;2023-01-29T05:35:48;101694.16;;;30.34;49.24
64404;BME280;50726;54.912;-8.392;2023-01-29T05:38:15;101700.88;;;31.28;48.34
64404;BME280;50726;54.912;-8.392;2023-01-29T05:40:41;101668.38;;;28.62;50.58
64404;BME280;50726;54.912;-8.392;2023-01-29T05:43:17;101722.19;;;29.70;49.60
64404;BME280;50726;54.912;-8.392;2023-01-29T05:45:51;101677.97;;;29.09;51.12
64404;BME280;50726;54.912;-8.392;2023-01-29T05:48:17;101698.53;;;29.84;51.12
64404;BME280;50726;54.912;-8.392;2023-01-29T05:50:42;101684.88;;;28.02;51.47
64404;BME280;50726;54.912;-8.392;2023-01-29T05:53:08;101694.91;;;27.07;52.21
64404;BME280;50726;54.912;-8.392;2023-01-29T05:55:34;101668.97;;;28.22;53.88
64404;BME280;50726;54.912;-8.392;2023-01-29T05:57:59;101665.09;;;29.13;52.29
64404;BME280;50726;54.912;-8.392;2023-01-29T06:00:25;101678.28;;;28.29;53.04
64404;BME280;50726;54.912;-8.392;2023-01-29T06:02:51;101658.97;;;29.32;51.84
64404;BME280;50726;54.912;-8.392;2023-01-29T06:05:17;101666.31;;;28.10;55.60
64404;BME280;50726;54.912;-8.392;2023-01-29T06:07:42;101685.25;;;27.74;55.33
64404;BME280;50726;54.912;-8.392;2023-01-29T06:10:14;101662.22;;;31.66;49.49
64404;BME280;50726;54.912;-8.392;2023-01-29T06:12:41;101669.38;;;29.58;51.03
64404;BME280;50726;54.912;-8.392;2023-01-29T06:15:08;101630.78;;;27.72;52.79
64404;BME280;50726;54.912;-8.392;2023-01-29T06:17:35;101669.78;;;29.42;52.25
64404;BME280;50726;54.912;-8.392;2023-01-29T06:20:00;101644.97;;;28.41;54.02
64404;BME280;50726;54.912;-8.392;2023-01-29T06:22:26;101635.84;;;28.21;54.67
64404;BME280;50726;54.912;-8.392;2023-01-29T06:24:52;101649.13;;;28.78;53.46
64404;BME280;50726;54.912;-8.392;2023-01-29T06:27:17;101639.97;;;29.55;52.41
64404;BME280;50726;54.912;-8.392;2023-01-29T06:29:43;101644.72;;;29.72;51.31
64404;BME280;50726;54.912;-8.392;2023-01-29T06:32:09;101644.75;;;28.99;51.66
64404;BME280;50726;54.912;-8.392;2023-01-29T06:34:34;101614.22;;;28.88;53.39
64404;BME280;50726;54.912;-8.392;2023-01-29T06:37:00;101601.81;;;27.87;55.07
64404;BME280;50726;54.912;-8.392;2023-01-29T06:39:26;101605.41;;;28.75;53.84
64404;BME280;50726;54.912;-8.392;2023-01-29T06:41:52;101607.31;;;27.86;54.54
64404;BME280;50726;54.912;-8.392;2023-01-29T06:44:18;101628.00;;;28.62;56.27
64404;BME280;50726;54.912;-8.392;2023-01-29T06:46:43;101637.75;;;27.64;58.08
64404;BME280;50726;54.912;-8.392;2023-01-29T06:49:09;101626.22;;;27.96;56.91
64404;BME280;50726;54.912;-8.392;2023-01-29T06:51:35;101631.38;;;27.53;56.96
64404;BME280;50726;54.912;-8.392;2023-01-29T06:54:00;101671.94;;;28.84;55.57
64404;BME280;50726;54.912;-8.392;2023-01-29T06:56:26;101623.78;;;28.48;56.60
64404;BME280;50726;54.912;-8.392;2023-01-29T06:58:52;101626.69;;;28.12;56.02
64404;BME280;50726;54.912;-8.392;2023-01-29T07:01:17;101645.72;;;28.21;56.22
64404;BME280;50726;54.912;-8.392;2023-01-29T07:03:43;101622.00;;;28.37;55.93
64404;BME280;50726;54.912;-8.392;2023-01-29T07:06:09;101621.47;;;28.98;55.67
64404;BME280;50726;54.912;-8.392;2023-01-29T07:08:37;101625.84;;;28.00;57.51
64404;BME280;50726;54.912;-8.392;2023-01-29T07:11:04;101633.56;;;27.37;59.21
64404;BME280;50726;54.912;-8.392;2023-01-29T07:13:30;101618.28;;;28.50;57.70
64404;BME280;50726;54.912;-8.392;2023-01-29T07:16:03;101625.53;;;27.71;58.33
64404;BME280;50726;54.912;-8.392;2023-01-29T07:18:30;101593.94;;;28.07;58.13
64404;BME280;50726;54.912;-8.392;2023-01-29T07:20:56;101601.66;;;29.51;56.28
64404;BME280;50726;54.912;-8.392;2023-01-29T07:23:22;101597.41;;;27.52;59.29
64404;BME280;50726;54.912;-8.392;2023-01-29T07:25:49;101578.63;;;27.29;59.14
64404;BME280;50726;54.912;-8.392;2023-01-29T07:28:16;101621.34;;;27.44;61.86
64404;BME280;50726;54.912;-8.392;2023-01-29T07:30:42;101590.09;;;28.21;59.04
64404;BME280;50726;54.912;-8.392;2023-01-29T07:33:09;101621.31;;;28.78;57.18
64404;BME280;50726;54.912;-8.392;2023-01-29T07:35:37;101588.47;;;30.88;54.77
64404;BME280;50726;54.912;-8.392;2023-01-29T07:38:03;101611.44;;;27.33;59.58
64404;BME280;50726;54.912;-8.392;2023-01-29T07:40:29;101587.38;;;27.08;60.49
64404;BME280;50726;54.912;-8.392;2023-01-29T07:43:02;101601.06;;;27.85;61.22
64404;BME280;50726;54.912;-8.392;2023-01-29T07:45:29;101571.22;;;28.00;60.97
64404;BME280;50726;54.912;-8.392;2023-01-29T07:47:55;101581.66;;;27.02;62.52
64404;BME280;50726;54.912;-8.392;2023-01-29T07:50:25;101594.22;;;27.93;61.13
64404;BME280;50726;54.912;-8.392;2023-01-29T07:52:53;101583.75;;;28.76;59.68
64404;BME280;50726;54.912;-8.392;2023-01-29T07:55:19;101595.69;;;29.16;58.88
64404;BME280;50726;54.912;-8.392;2023-01-29T07:57:46;101576.53;;;27.33;60.96
64404;BME280;50726;54.912;-8.392;2023-01-29T08:00:13;101558.91;;;28.63;60.50
64404;BME280;50726;54.912;-8.392;2023-01-29T08:02:40;101555.53;;;27.72;61.41
64404;BME280;50726;54.912;-8.392;2023-01-29T08:05:07;101573.63;;;28.26;61.01
64404;BME280;50726;54.912;-8.392;2023-01-29T08:07:32;101580.31;;;29.07;57.54
64404;BME280;50726;54.912;-8.392;2023-01-29T08:09:58;101560.06;;;27.60;59.56
64404;BME280;50726;54.912;-8.392;2023-01-29T08:12:24;101570.53;;;28.63;58.47
64404;BME280;50726;54.912;-8.392;2023-01-29T08:14:49;101581.03;;;28.88;58.07
64404;BME280;50726;54.912;-8.392;2023-01-29T08:17:15;101588.03;;;28.58;58.68
64404;BME280;50726;54.912;-8.392;2023-01-29T08:19:41;101608.59;;;27.00;60.53
64404;BME280;50726;54.912;-8.392;2023-01-29T08:22:06;101581.78;;;28.57;59.52
64404;BME280;50726;54.912;-8.392;2023-01-29T08:24:32;101573.09;;;27.54;61.28
64404;BME280;50726;54.912;-8.392;2023-01-29T08:26:58;101593.25;;;28.38;59.30
64404;BME280;50726;54.912;-8.392;2023-01-29T08:29:23;101597.00;;;26.64;63.06
64404;BME280;50726;54.912;-8.392;2023-01-29T08:31:49;101595.44;;;27.31;62.04
64404;BME280;50726;54.912;-8.392;2023-01-29T08:34:15;101615.84;;;27.45;61.90
64404;BME280;50726;54.912;-8.392;2023-01-29T08:36:40;101588.38;;;27.19;62.80
64404;BME280;50726;54.912;-8.392;2023-01-29T08:39:06;101573.84;;;27.10;62.03
64404;BME280;50726;54.912;-8.392;2023-01-29T08:41:32;101576.91;;;27.17;62.30
64404;BME280;50726;54.912;-8.392;2023-01-29T08:43:58;101583.25;;;27.50;62.83
64404;BME280;50726;54.912;-8.392;2023-01-29T08:46:25;101586.41;;;26.98;64.15
64404;BME280;50726;54.912;-8.392;2023-01-29T08:48:51;101573.56;;;27.93;61.87
64404;BME280;50726;54.912;-8.392;2023-01-29T08:51:17;101553.22;;;28.23;60.33
64404;BME280;50726;54.912;-8.392;2023-01-29T08:53:43;101572.72;;;27.01;62.92
64404;BME280;50726;54.912;-8.392;2023-01-29T08:56:08;101585.03;;;26.68;64.27
64404;BME280;50726;54.912;-8.392;2023-01-29T08:58:34;101598.34;;;26.94;63.87
64404;BME280;50726;54.912;-8.392;2023-01-29T09:01:07;101581.16;;;29.39;60.23
64404;BME280;50726;54.912;-8.392;2023-01-29T09:03:34;101553.75;;;27.94;61.12
64404;BME280;50726;54.912;-8.392;2023-01-29T09:06:00;101575.50;;;28.47;60.95
64404;BME280;50726;54.912;-8.392;2023-01-29T09:08:26;101553.91;;;29.01;59.41
64404;BME280;50726;54.912;-8.392;2023-01-29T09:10:52;101564.22;;;28.53;60.03
64404;BME280;50726;54.912;-8.392;2023-01-29T09:13:18;101540.47;;;29.83;58.48
64404;BME280;50726;54.912;-8.392;2023-01-29T09:15:43;101541.72;;;27.08;61.18
64404;BME280;50726;54.912;-8.392;2023-01-29T09:18:09;101556.50;;;29.43;57.28
64404;BME280;50726;54.912;-8.392;2023-01-29T09:20:35;101547.47;;;27.84;59.70
64404;BME280;50726;54.912;-8.392;2023-01-29T09:23:09;101558.44;;;27.81;60.75
64404;BME280;50726;54.912;-8.392;2023-01-29T09:25:36;101548.41;;;29.02;60.31
64404;BME280;50726;54.912;-8.392;2023-01-29T09:28:02;101535.84;;;28.49;58.31
64404;BME280;50726;54.912;-8.392;2023-01-29T09:30:28;101537.47;;;28.07;59.73
64404;BME280;50726;54.912;-8.392;2023-01-29T09:32:54;101544.19;;;27.12;61.10
64404;BME280;50726;54.912;-8.392;2023-01-29T09:35:21;101581.03;;;27.78;61.83
64404;BME280;50726;54.912;-8.392;2023-01-29T09:37:48;101499.88;;;27.96;60.90
64404;BME280;50726;54.912;-8.392;2023-01-29T09:40:24;101535.56;;;29.16;58.75
64404;BME280;50726;54.912;-8.392;2023-01-29T09:43:02;101513.72;;;28.24;60.02
64404;BME280;50726;54.912;-8.392;2023-01-29T09:45:29;101506.53;;;26.77;64.77
64404;BME280;50726;54.912;-8.392;2023-01-29T09:47:59;101502.22;;;29.07;60.41
64404;BME280;50726;54.912;-8.392;2023-01-29T09:50:35;101505.03;;;27.87;63.69
64404;BME280;50726;54.912;-8.392;2023-01-29T09:56:05;101487.16;;;27.98;62.78
64404;BME280;50726;54.912;-8.392;2023-01-29T09:58:37;101471.78;;;29.16;60.33
64404;BME280;50726;54.912;-8.392;2023-01-29T10:09:04;101479.34;;;29.42;58.31
64404;BME280;50726;54.912;-8.392;2023-01-29T10:14:43;101473.16;;;29.11;58.68
64404;BME280;50726;54.912;-8.392;2023-01-29T10:19:44;101451.28;;;26.16;63.35
64404;BME280;50726;54.912;-8.392;2023-01-29T10:24:52;101482.78;;;29.03;59.10
64404;BME280;50726;54.912;-8.392;2023-01-29T10:27:19;101461.44;;;28.59;58.22
64404;BME280;50726;54.912;-8.392;2023-01-29T10:29:47;101421.63;;;28.32;60.13
64404;BME280;50726;54.912;-8.392;2023-01-29T10:32:17;101466.22;;;29.08;60.05
64404;BME280;50726;54.912;-8.392;2023-01-29T10:37:22;101464.09;;;30.32;57.15
64404;BME280;50726;54.912;-8.392;2023-01-29T10:39:50;101460.19;;;29.35;56.21
64404;BME280;50726;54.912;-8.392;2023-01-29T10:45:05;101464.59;;;30.55;55.39
64404;BME280;50726;54.912;-8.392;2023-01-29T10:50:49;101448.16;;;30.48;54.62
64404;BME280;50726;54.912;-8.392;2023-01-29T10:58:38;101474.03;;;28.37;62.14
64404;BME280;50726;54.912;-8.392;2023-01-29T11:01:09;101450.75;;;28.26;61.82
64404;BME280;50726;54.912;-8.392;2023-01-29T11:03:35;101443.03;;;28.00;59.44
64404;BME280;50726;54.912;-8.392;2023-01-29T11:11:45;101438.81;;;28.72;58.74
64404;BME280;50726;54.912;-8.392;2023-01-29T11:16:46;101457.28;;;29.48;58.89
64404;BME280;50726;54.912;-8.392;2023-01-29T11:19:13;101422.81;;;29.01;57.79
64404;BME280;50726;54.912;-8.392;2023-01-29T11:22:00;101430.75;;;30.23;57.05
64404;BME280;50726;54.912;-8.392;2023-01-29T11:24:26;101427.78;;;29.67;57.31
64404;BME280;50726;54.912;-8.392;2023-01-29T11:27:01;101430.31;;;29.68;58.15
64404;BME280;50726;54.912;-8.392;2023-01-29T11:29:43;101396.25;;;29.38;57.36
64404;BME280;50726;54.912;-8.392;2023-01-29T11:32:24;101414.84;;;29.60;57.57
64404;BME280;50726;54.912;-8.392;2023-01-29T11:35:02;101417.56;;;29.70;56.80
64404;BME280;50726;54.912;-8.392;2023-01-29T11:37:36;101425.81;;;29.08;56.23
64404;BME280;50726;54.912;-8.392;2023-01-29T11:40:36;101394.38;;;29.18;55.48
64404;BME280;50726;54.912;-8.392;2023-01-29T11:45:41;101351.66;;;29.04;56.46
64404;BME280;50726;54.912;-8.392;2023-01-29T11:48:17;101381.34;;;29.43;55.57
64404;BME280;50726;54.912;-8.392;2023-01-29T11:50:50;101392.28;;;28.07;55.93
64404;BME280;50726;54.912;-8.392;2023-01-29T11:55:52;101341.88;;;27.01;57.55
64404;BME280;50726;54.912;-8.392;2023-01-29T11:58:41;101423.00;;;28.26;58.40
64404;BME280;50726;54.912;-8.392;2023-01-29T12:01:08;101344.63;;;29.23;54.94
64404;BME280;50726;54.912;-8.392;2023-01-29T12:03:44;101347.78;;;31.19;53.82
64404;BME280;50726;54.912;-8.392;2023-01-29T12:06:27;101317.31;;;30.05;53.54
64404;BME280;50726;54.912;-8.392;2023-01-29T12:08:56;101324.50;;;29.66;54.93
64404;BME280;50726;54.912;-8.392;2023-01-29T12:11:27;101312.88;;;29.16;54.28
64404;BME280;50726;54.912;-8.392;2023-01-29T12:13:55;101327.91;;;28.15;57.83
64404;BME280;50726;54.912;-8.392;2023-01-29T12:16:29;101284.72;;;28.70;56.33
64404;BME280;50726;54.912;-8.392;2023-01-29T12:19:10;101317.97;;;29.29;54.49
64404;BME280;50726;54.912;-8.392;2023-01-29T12:22:19;101315.94;;;30.76;52.32
64404;BME280;50726;54.912;-8.392;2023-01-29T12:24:56;101322.25;;;29.61;51.80
64404;BME280;50726;54.912;-8.392;2023-01-29T12:30:19;101268.75;;;29.57;52.68
64404;BME280;50726;54.912;-8.392;2023-01-29T12:36:01;101244.16;;;28.51;55.56
64404;BME280;50726;54.912;-8.392;2023-01-29T12:38:29;101280.03;;;27.78;56.30
64404;BME280;50726;54.912;-8.392;2023-01-29T12:41:17;101277.28;;;28.21;56.29
64404;BME280;50726;54.912;-8.392;2023-01-29T12:46:40;101224.97;;;29.93;54.71
64404;BME280;50726;54.912;-8.392;2023-01-29T12:49:20;101264.38;;;29.36;54.42
64404;BME280;50726;54.912;-8.392;2023-01-29T12:52:06;101213.03;;;30.33;53.22
64404;BME280;50726;54.912;-8.392;2023-01-29T12:54:45;101234.81;;;29.84;54.43
64404;BME280;50726;54.912;-8.392;2023-01-29T12:57:24;101227.34;;;28.79;56.78
64404;BME280;50726;54.912;-8.392;2023-01-29T13:00:31;101213.78;;;27.25;57.46
64404;BME280;50726;54.912;-8.392;2023-01-29T13:03:18;101217.63;;;27.11;59.63
64404;BME280;50726;54.912;-8.392;2023-01-29T13:06:25;101241.88;;;27.42;58.31
64404;BME280;50726;54.912;-8.392;2023-01-29T13:09:14;101217.06;;;26.06;63.12
64404;BME280;50726;54.912;-8.392;2023-01-29T13:11:57;101240.69;;;27.34;61.63
64404;BME280;50726;54.912;-8.392;2023-01-29T13:14:40;101255.81;;;27.14;61.97
64404;BME280;50726;54.912;-8.392;2023-01-29T13:19:41;101249.63;;;25.54;64.73
64404;BME280;50726;54.912;-8.392;2023-01-29T13:22:26;101217.19;;;27.27;62.23
64404;BME280;50726;54.912;-8.392;2023-01-29T13:24:53;101191.97;;;26.41;63.54
64404;BME280;50726;54.912;-8.392;2023-01-29T13:27:23;101224.59;;;27.77;61.73
64404;BME280;50726;54.912;-8.392;2023-01-29T13:29:49;101193.28;;;27.45;60.44
64404;BME280;50726;54.912;-8.392;2023-01-29T13:32:26;101220.03;;;28.30;61.10
64404;BME280;50726;54.912;-8.392;2023-01-29T13:35:01;101209.59;;;29.45;56.79
64404;BME280;50726;54.912;-8.392;2023-01-29T13:38:01;101226.63;;;29.46;56.62
64404;BME280;50726;54.912;-8.392;2023-01-29T13:40:29;101196.53;;;28.32;59.25
64404;BME280;50726;54.912;-8.392;2023-01-29T13:42:59;101204.16;;;26.89;62.63
64404;BME280;50726;54.912;-8.392;2023-01-29T13:45:41;101190.66;;;28.78;60.21
64404;BME280;50726;54.912;-8.392;2023-01-29T13:48:28;101157.50;;;27.66;60.89
64404;BME280;50726;54.912;-8.392;2023-01-29T13:51:02;101151.72;;;27.49;63.80
64404;BME280;50726;54.912;-8.392;2023-01-29T13:53:37;101149.91;;;28.22;61.26
64404;BME280;50726;54.912;-8.392;2023-01-29T13:59:00;101166.03;;;27.07;63.78
64404;BME280;50726;54.912;-8.392;2023-01-29T14:04:25;101161.88;;;27.45;64.10
64404;BME280;50726;54.912;-8.392;2023-01-29T14:06:53;101136.28;;;28.04;62.35
64404;BME280;50726;54.912;-8.392;2023-01-29T14:12:36;101126.25;;;28.15;63.96
64404;BME280;50726;54.912;-8.392;2023-01-29T14:15:04;101096.69;;;26.79;65.91
64404;BME280;50726;54.912;-8.392;2023-01-29T14:17:30;101109.81;;;27.37;64.98
64404;BME280;50726;54.912;-8.392;2023-01-29T14:20:16;101116.16;;;28.78;60.48
64404;BME280;50726;54.912;-8.392;2023-01-29T14:22:42;101092.91;;;28.58;63.71
64404;BME280;50726;54.912;-8.392;2023-01-29T14:25:16;101136.63;;;27.79;63.49
64404;BME280;50726;54.912;-8.392;2023-01-29T14:27:47;101084.47;;;29.30;62.57
64404;BME280;50726;54.912;-8.392;2023-01-29T14:30:18;101098.19;;;29.37;62.39
64404;BME280;50726;54.912;-8.392;2023-01-29T14:32:48;101104.31;;;27.59;65.35
64404;BME280;50726;54.912;-8.392;2023-01-29T14:35:26;101113.97;;;27.72;65.37
64404;BME280;50726;54.912;-8.392;2023-01-29T14:38:01;101106.38;;;28.28;65.38
64404;BME280;50726;54.912;-8.392;2023-01-29T14:40:30;101129.84;;;26.57;68.90
64404;BME280;50726;54.912;-8.392;2023-01-29T14:45:36;101116.72;;;27.29;68.34